sensor_id;sensor_type;location;lat;lon;timestamp;P1;durP1;ratioP1;P2;durP2;ratioP2
81544;SDS011;70990;50.618;7.346;2023-11-18T00:01:31;140.13;;;13.90;;
81544;SDS011;70990;50.618;7.346;2023-11-18T00:03:58;46.85;;;7.80;;
81544;SDS011;70990;50.618;7.346;2023-11-18T00:06:25;96.25;;;11.02;;
81544;SDS011;70990;50.618;7.346;2023-11-18T00:08:52;68.00;;;10.20;;
81544;SDS011;70990;50.618;7.346;2023-11-18T00:11:18;66.93;;;10.25;;
81544;SDS011;70990;50.618;7.346;2023-11-18T00:13:44;71.90;;;11.52;;
81544;SDS011;70990;50.618;7.346;2023-11-18T00:16:11;131.98;;;13.10;;
81544;SDS011;70990;50.618;7.346;2023-11-18T00:18:41;91.25;;;11.27;;
81544;SDS011;70990;50.618;7.346;2023-11-18T00:21:08;92.40;;;11.32;;
81544;SDS011;70990;50.618;7.346;2023-11-18T00:23:35;115.22;;;14.02;;
81544;SDS011;70990;50.618;7.346;2023-11-18T00:26:02;42.47;;;9.25;;
81544;SDS011;70990;50.618;7.346;2023-11-18T00:28:28;123.88;;;15.10;;
81544;SDS011;70990;50.618;7.346;2023-11-18T00:30:55;94.35;;;10.50;;
81544;SDS011;70990;50.618;7.346;2023-11-18T00:33:22;31.25;;;7.45;;
81544;SDS011;70990;50.618;7.346;2023-11-18T00:35:48;59.35;;;9.02;;
81544;SDS011;70990;50.618;7.346;2023-11-18T00:38:15;59.22;;;9.32;;
81544;SDS011;70990;50.618;7.346;2023-11-18T00:40:41;125.72;;;11.35;;
81544;SDS011;70990;50.618;7.346;2023-11-18T00:43:08;85.22;;;9.55;;
81544;SDS011;70990;50.618;7.346;2023-11-18T00:45:35;86.32;;;10.95;;
81544;SDS011;70990;50.618;7.346;2023-11-18T00:48:01;87.93;;;10.35;;
81544;SDS011;70990;50.618;7.346;2023-11-18T00:50:28;55.53;;;9.77;;
81544;SDS011;70990;50.618;7.346;2023-11-18T00:52:54;141.13;;;12.45;;
81544;SDS011;70990;50.618;7.346;2023-11-18T00:55:21;74.97;;;9.25;;
81544;SDS011;70990;50.618;7.346;2023-11-18T00:57:47;77.00;;;11.90;;
81544;SDS011;70990;50.618;7.346;2023-11-18T01:00:14;56.22;;;10.73;;
81544;SDS011;70990;50.618;7.346;2023-11-18T01:02:42;69.80;;;11.02;;
81544;SDS011;70990;50.618;7.346;2023-11-18T01:05:09;93.93;;;11.40;;
81544;SDS011;70990;50.618;7.346;2023-11-18T01:07:37;134.20;;;13.40;;
81544;SDS011;70990;50.618;7.346;2023-11-18T01:10:04;118.35;;;13.48;;
81544;SDS011;70990;50.618;7.346;2023-11-18T01:12:32;99.75;;;11.80;;
81544;SDS011;70990;50.618;7.346;2023-11-18T01:14:59;136.18;;;12.73;;
81544;SDS011;70990;50.618;7.346;2023-11-18T01:17:25;54.70;;;10.63;;
81544;SDS011;70990;50.618;7.346;2023-11-18T01:19:52;175.32;;;14.85;;
81544;SDS011;70990;50.618;7.346;2023-11-18T01:22:19;47.42;;;10.15;;
81544;SDS011;70990;50.618;7.346;2023-11-18T01:24:45;45.25;;;9.15;;
81544;SDS011;70990;50.618;7.346;2023-11-18T01:27:12;53.90;;;9.15;;
81544;SDS011;70990;50.618;7.346;2023-11-18T01:29:39;90.72;;;12.65;;
81544;SDS011;70990;50.618;7.346;2023-11-18T01:32:06;82.03;;;11.32;;
81544;SDS011;70990;50.618;7.346;2023-11-18T01:34:33;128.05;;;12.65;;
81544;SDS011;70990;50.618;7.346;2023-11-18T01:36:59;101.45;;;12.63;;
81544;SDS011;70990;50.618;7.346;2023-11-18T01:39:26;104.78;;;12.43;;
81544;SDS011;70990;50.618;7.346;2023-11-18T01:41:52;64.53;;;10.55;;
81544;SDS011;70990;50.618;7.346;2023-11-18T01:44:19;35.50;;;10.05;;
81544;SDS011;70990;50.618;7.346;2023-11-18T01:46:45;51.38;;;8.77;;
81544;SDS011;70990;50.618;7.346;2023-11-18T01:49:13;35.05;;;8.30;;
81544;SDS011;70990;50.618;7.346;2023-11-18T01:51:41;45.35;;;9.77;;
81544;SDS011;70990;50.618;7.346;2023-11-18T01:54:10;63.58;;;11.73;;
81544;SDS011;70990;50.618;7.346;2023-11-18T01:56:38;71.18;;;10.90;;
81544;SDS011;70990;50.618;7.346;2023-11-18T01:59:05;79.25;;;12.43;;
81544;SDS011;70990;50.618;7.346;2023-11-18T02:01:32;45.42;;;9.82;;
81544;SDS011;70990;50.618;7.346;2023-11-18T02:03:59;68.60;;;13.88;;
81544;SDS011;70990;50.618;7.346;2023-11-18T02:06:26;61.00;;;11.35;;
81544;SDS011;70990;50.618;7.346;2023-11-18T02:08:53;62.45;;;11.63;;
81544;SDS011;70990;50.618;7.346;2023-11-18T02:11:22;35.65;;;9.77;;
81544;SDS011;70990;50.618;7.346;2023-11-18T02:14:02;75.55;;;12.30;;
81544;SDS011;70990;50.618;7.346;2023-11-18T02:16:30;32.20;;;9.13;;
81544;SDS011;70990;50.618;7.346;2023-11-18T02:18:58;36.05;;;10.15;;
81544;SDS011;70990;50.618;7.346;2023-11-18T02:21:26;30.67;;;8.80;;
81544;SDS011;70990;50.618;7.346;2023-11-18T02:23:53;29.60;;;9.02;;
81544;SDS011;70990;50.618;7.346;2023-11-18T02:26:23;52.20;;;11.88;;
81544;SDS011;70990;50.618;7.346;2023-11-18T02:28:50;144.05;;;16.25;;
81544;SDS011;70990;50.618;7.346;2023-11-18T02:31:20;113.40;;;13.07;;
81544;SDS011;70990;50.618;7.346;2023-11-18T02:34:00;49.65;;;9.82;;
81544;SDS011;70990;50.618;7.346;2023-11-18T02:36:33;53.97;;;8.57;;
81544;SDS011;70990;50.618;7.346;2023-11-18T02:39:04;23.38;;;7.40;;
81544;SDS011;70990;50.618;7.346;2023-11-18T02:41:32;41.30;;;9.27;;
81544;SDS011;70990;50.618;7.346;2023-11-18T02:44:00;38.53;;;10.18;;
81544;SDS011;70990;50.618;7.346;2023-11-18T02:46:28;47.67;;;10.98;;
81544;SDS011;70990;50.618;7.346;2023-11-18T02:48:55;46.75;;;10.18;;
81544;SDS011;70990;50.618;7.346;2023-11-18T02:51:22;42.13;;;10.63;;
81544;SDS011;70990;50.618;7.346;2023-11-18T02:53:49;27.13;;;9.18;;
81544;SDS011;70990;50.618;7.346;2023-11-18T02:56:15;38.97;;;9.73;;
81544;SDS011;70990;50.618;7.346;2023-11-18T02:58:42;26.30;;;8.63;;
81544;SDS011;70990;50.618;7.346;2023-11-18T03:01:09;33.47;;;10.88;;
81544;SDS011;70990;50.618;7.346;2023-11-18T03:03:35;27.85;;;9.05;;
81544;SDS011;70990;50.618;7.346;2023-11-18T03:06:02;24.48;;;8.05;;
81544;SDS011;70990;50.618;7.346;2023-11-18T03:08:29;27.17;;;7.97;;
81544;SDS011;70990;50.618;7.346;2023-11-18T03:10:56;21.75;;;7.13;;
81544;SDS011;70990;50.618;7.346;2023-11-18T03:13:22;23.17;;;9.07;;
81544;SDS011;70990;50.618;7.346;2023-11-18T03:15:49;23.45;;;7.80;;
81544;SDS011;70990;50.618;7.346;2023-11-18T03:18:17;32.17;;;10.70;;
81544;SDS011;70990;50.618;7.346;2023-11-18T03:20:43;31.05;;;9.85;;
81544;SDS011;70990;50.618;7.346;2023-11-18T03:23:10;32.15;;;10.07;;
81544;SDS011;70990;50.618;7.346;2023-11-18T03:25:36;34.53;;;10.93;;
81544;SDS011;70990;50.618;7.346;2023-11-18T03:28:03;30.35;;;8.32;;
81544;SDS011;70990;50.618;7.346;2023-11-18T03:30:29;35.55;;;10.20;;
81544;SDS011;70990;50.618;7.346;2023-11-18T03:32:56;30.10;;;8.48;;
81544;SDS011;70990;50.618;7.346;2023-11-18T03:35:23;25.23;;;9.05;;
81544;SDS011;70990;50.618;7.346;2023-11-18T03:37:49;29.17;;;9.55;;
81544;SDS011;70990;50.618;7.346;2023-11-18T03:40:16;27.25;;;9.20;;
81544;SDS011;70990;50.618;7.346;2023-11-18T03:42:43;28.25;;;7.93;;
81544;SDS011;70990;50.618;7.346;2023-11-18T03:45:09;22.77;;;7.97;;
81544;SDS011;70990;50.618;7.346;2023-11-18T03:47:37;22.45;;;7.43;;
81544;SDS011;70990;50.618;7.346;2023-11-18T03:50:04;23.77;;;8.10;;
81544;SDS011;70990;50.618;7.346;2023-11-18T03:52:31;20.10;;;7.43;;
81544;SDS011;70990;50.618;7.346;2023-11-18T03:54:57;21.00;;;7.32;;
81544;SDS011;70990;50.618;7.346;2023-11-18T03:57:24;21.30;;;7.53;;
81544;SDS011;70990;50.618;7.346;2023-11-18T03:59:50;17.30;;;6.88;;
81544;SDS011;70990;50.618;7.346;2023-11-18T04:02:17;20.70;;;7.25;;
81544;SDS011;70990;50.618;7.346;2023-11-18T04:04:44;19.67;;;7.78;;
81544;SDS011;70990;50.618;7.346;2023-11-18T04:07:11;18.30;;;7.03;;
81544;SDS011;70990;50.618;7.346;2023-11-18T04:09:37;22.75;;;7.80;;
81544;SDS011;70990;50.618;7.346;2023-11-18T04:12:04;19.48;;;6.63;;
81544;SDS011;70990;50.618;7.346;2023-11-18T04:14:31;22.20;;;8.57;;
81544;SDS011;70990;50.618;7.346;2023-11-18T04:16:57;19.70;;;8.07;;
81544;SDS011;70990;50.618;7.346;2023-11-18T04:19:24;22.13;;;7.40;;
81544;SDS011;70990;50.618;7.346;2023-11-18T04:21:50;22.52;;;7.47;;
81544;SDS011;70990;50.618;7.346;2023-11-18T04:24:17;17.80;;;7.10;;
81544;SDS011;70990;50.618;7.346;2023-11-18T04:26:43;21.35;;;7.15;;
81544;SDS011;70990;50.618;7.346;2023-11-18T04:29:10;23.25;;;7.90;;
81544;SDS011;70990;50.618;7.346;2023-11-18T04:31:36;20.13;;;7.55;;
81544;SDS011;70990;50.618;7.346;2023-11-18T04:34:03;19.80;;;8.90;;
81544;SDS011;70990;50.618;7.346;2023-11-18T04:36:30;32.28;;;11.82;;
81544;SDS011;70990;50.618;7.346;2023-11-18T04:38:56;39.95;;;12.75;;
81544;SDS011;70990;50.618;7.346;2023-11-18T04:41:26;27.38;;;11.02;;
81544;SDS011;70990;50.618;7.346;2023-11-18T04:43:53;26.88;;;9.50;;
81544;SDS011;70990;50.618;7.346;2023-11-18T04:46:19;33.83;;;10.90;;
81544;SDS011;70990;50.618;7.346;2023-11-18T04:48:47;26.60;;;8.50;;
81544;SDS011;70990;50.618;7.346;2023-11-18T04:51:13;8.95;;;3.30;;
81544;SDS011;70990;50.618;7.346;2023-11-18T04:53:40;35.05;;;7.20;;
81544;SDS011;70990;50.618;7.346;2023-11-18T04:56:06;24.40;;;7.00;;
81544;SDS011;70990;50.618;7.346;2023-11-18T04:58:33;29.00;;;7.85;;
81544;SDS011;70990;50.618;7.346;2023-11-18T05:01:00;30.33;;;7.22;;
81544;SDS011;70990;50.618;7.346;2023-11-18T05:03:26;38.42;;;7.80;;
81544;SDS011;70990;50.618;7.346;2023-11-18T05:05:53;22.58;;;6.43;;
81544;SDS011;70990;50.618;7.346;2023-11-18T05:08:23;23.70;;;6.85;;
81544;SDS011;70990;50.618;7.346;2023-11-18T05:10:50;20.17;;;4.95;;
81544;SDS011;70990;50.618;7.346;2023-11-18T05:13:17;22.50;;;7.43;;
81544;SDS011;70990;50.618;7.346;2023-11-18T05:15:44;20.25;;;6.63;;
81544;SDS011;70990;50.618;7.346;2023-11-18T05:18:13;15.80;;;5.75;;
81544;SDS011;70990;50.618;7.346;2023-11-18T05:20:40;20.67;;;6.43;;
81544;SDS011;70990;50.618;7.346;2023-11-18T05:23:07;21.90;;;6.88;;
81544;SDS011;70990;50.618;7.346;2023-11-18T05:25:34;19.35;;;6.82;;
81544;SDS011;70990;50.618;7.346;2023-11-18T05:28:01;18.10;;;4.63;;
81544;SDS011;70990;50.618;7.346;2023-11-18T05:30:27;29.88;;;6.75;;
81544;SDS011;70990;50.618;7.346;2023-11-18T05:32:54;16.55;;;6.30;;
81544;SDS011;70990;50.618;7.346;2023-11-18T05:35:21;14.65;;;4.75;;
81544;SDS011;70990;50.618;7.346;2023-11-18T05:37:48;13.38;;;4.35;;
81544;SDS011;70990;50.618;7.346;2023-11-18T05:40:14;22.02;;;6.57;;
81544;SDS011;70990;50.618;7.346;2023-11-18T05:42:41;24.00;;;8.50;;
81544;SDS011;70990;50.618;7.346;2023-11-18T05:45:07;23.70;;;6.72;;
81544;SDS011;70990;50.618;7.346;2023-11-18T05:47:34;24.10;;;7.50;;
81544;SDS011;70990;50.618;7.346;2023-11-18T05:50:01;24.38;;;7.45;;
81544;SDS011;70990;50.618;7.346;2023-11-18T05:52:27;20.23;;;6.93;;
81544;SDS011;70990;50.618;7.346;2023-11-18T05:54:54;25.13;;;8.02;;
81544;SDS011;70990;50.618;7.346;2023-11-18T05:57:20;20.92;;;5.47;;
81544;SDS011;70990;50.618;7.346;2023-11-18T05:59:47;15.23;;;5.05;;
81544;SDS011;70990;50.618;7.346;2023-11-18T06:02:14;23.08;;;7.03;;
81544;SDS011;70990;50.618;7.346;2023-11-18T06:04:40;11.27;;;3.97;;
81544;SDS011;70990;50.618;7.346;2023-11-18T06:07:07;17.80;;;6.75;;
81544;SDS011;70990;50.618;7.346;2023-11-18T06:09:34;20.02;;;7.00;;
81544;SDS011;70990;50.618;7.346;2023-11-18T06:12:00;18.70;;;5.25;;
81544;SDS011;70990;50.618;7.346;2023-11-18T06:14:27;19.15;;;6.50;;
81544;SDS011;70990;50.618;7.346;2023-11-18T06:16:53;20.52;;;6.93;;
81544;SDS011;70990;50.618;7.346;2023-11-18T06:19:20;20.52;;;7.70;;
81544;SDS011;70990;50.618;7.346;2023-11-18T06:21:47;45.08;;;8.20;;
81544;SDS011;70990;50.618;7.346;2023-11-18T06:24:13;26.63;;;7.07;;
81544;SDS011;70990;50.618;7.346;2023-11-18T06:26:40;23.85;;;6.93;;
81544;SDS011;70990;50.618;7.346;2023-11-18T06:29:06;27.58;;;8.25;;
81544;SDS011;70990;50.618;7.346;2023-11-18T06:31:33;26.70;;;7.40;;
81544;SDS011;70990;50.618;7.346;2023-11-18T06:33:59;30.10;;;8.52;;
81544;SDS011;70990;50.618;7.346;2023-11-18T06:36:26;28.63;;;7.90;;
81544;SDS011;70990;50.618;7.346;2023-11-18T06:38:53;30.55;;;7.68;;
81544;SDS011;70990;50.618;7.346;2023-11-18T06:41:21;45.63;;;9.45;;
81544;SDS011;70990;50.618;7.346;2023-11-18T06:43:49;21.33;;;7.50;;
81544;SDS011;70990;50.618;7.346;2023-11-18T06:46:16;26.02;;;7.32;;
81544;SDS011;70990;50.618;7.346;2023-11-18T06:48:42;21.33;;;8.20;;
81544;SDS011;70990;50.618;7.346;2023-11-18T06:51:09;18.92;;;7.20;;
81544;SDS011;70990;50.618;7.346;2023-11-18T06:53:35;20.95;;;7.00;;
81544;SDS011;70990;50.618;7.346;2023-11-18T06:56:02;21.73;;;6.93;;
81544;SDS011;70990;50.618;7.346;2023-11-18T06:58:29;13.95;;;5.05;;
81544;SDS011;70990;50.618;7.346;2023-11-18T07:00:55;15.07;;;4.72;;
81544;SDS011;70990;50.618;7.346;2023-11-18T07:03:22;20.00;;;7.35;;
81544;SDS011;70990;50.618;7.346;2023-11-18T07:05:48;23.27;;;7.43;;
81544;SDS011;70990;50.618;7.346;2023-11-18T07:08:15;19.27;;;6.00;;
81544;SDS011;70990;50.618;7.346;2023-11-18T07:10:42;23.25;;;7.97;;
81544;SDS011;70990;50.618;7.346;2023-11-18T07:13:08;19.55;;;7.22;;
81544;SDS011;70990;50.618;7.346;2023-11-18T07:15:35;19.02;;;7.57;;
81544;SDS011;70990;50.618;7.346;2023-11-18T07:18:01;11.70;;;5.10;;
81544;SDS011;70990;50.618;7.346;2023-11-18T07:20:28;18.92;;;7.47;;
81544;SDS011;70990;50.618;7.346;2023-11-18T07:22:55;13.75;;;5.30;;
81544;SDS011;70990;50.618;7.346;2023-11-18T07:25:21;14.52;;;6.25;;
81544;SDS011;70990;50.618;7.346;2023-11-18T07:27:48;21.73;;;7.28;;
81544;SDS011;70990;50.618;7.346;2023-11-18T07:30:15;18.55;;;6.95;;
81544;SDS011;70990;50.618;7.346;2023-11-18T07:32:41;19.08;;;6.65;;
81544;SDS011;70990;50.618;7.346;2023-11-18T07:35:08;21.02;;;7.57;;
81544;SDS011;70990;50.618;7.346;2023-11-18T07:37:35;37.70;;;10.95;;
81544;SDS011;70990;50.618;7.346;2023-11-18T07:40:03;17.73;;;5.82;;
81544;SDS011;70990;50.618;7.346;2023-11-18T07:42:31;20.98;;;8.88;;
81544;SDS011;70990;50.618;7.346;2023-11-18T07:44:58;14.07;;;5.32;;
81544;SDS011;70990;50.618;7.346;2023-11-18T07:47:24;19.73;;;8.00;;
81544;SDS011;70990;50.618;7.346;2023-11-18T07:49:53;21.50;;;7.82;;
81544;SDS011;70990;50.618;7.346;2023-11-18T07:52:20;8.07;;;2.70;;
81544;SDS011;70990;50.618;7.346;2023-11-18T07:54:46;19.63;;;6.93;;
81544;SDS011;70990;50.618;7.346;2023-11-18T07:57:15;9.98;;;4.95;;
81544;SDS011;70990;50.618;7.346;2023-11-18T07:59:41;19.80;;;7.82;;
81544;SDS011;70990;50.618;7.346;2023-11-18T08:02:08;19.60;;;7.03;;
81544;SDS011;70990;50.618;7.346;2023-11-18T08:04:34;15.88;;;6.53;;
81544;SDS011;70990;50.618;7.346;2023-11-18T08:07:01;17.00;;;6.28;;
81544;SDS011;70990;50.618;7.346;2023-11-18T08:09:28;17.88;;;6.03;;
81544;SDS011;70990;50.618;7.346;2023-11-18T08:11:54;20.60;;;7.03;;
81544;SDS011;70990;50.618;7.346;2023-11-18T08:14:22;20.10;;;6.68;;
81544;SDS011;70990;50.618;7.346;2023-11-18T08:16:48;19.83;;;7.53;;
81544;SDS011;70990;50.618;7.346;2023-11-18T08:19:15;23.00;;;7.57;;
81544;SDS011;70990;50.618;7.346;2023-11-18T08:21:42;24.45;;;7.22;;
81544;SDS011;70990;50.618;7.346;2023-11-18T08:24:08;12.02;;;3.83;;
81544;SDS011;70990;50.618;7.346;2023-11-18T08:26:35;13.07;;;5.55;;
81544;SDS011;70990;50.618;7.346;2023-11-18T08:29:02;18.45;;;6.75;;
81544;SDS011;70990;50.618;7.346;2023-11-18T08:31:28;23.20;;;7.05;;
81544;SDS011;70990;50.618;7.346;2023-11-18T08:33:55;14.93;;;5.50;;
81544;SDS011;70990;50.618;7.346;2023-11-18T08:36:21;19.05;;;6.63;;
81544;SDS011;70990;50.618;7.346;2023-11-18T08:38:49;20.52;;;7.88;;
81544;SDS011;70990;50.618;7.346;2023-11-18T08:41:15;24.95;;;8.57;;
81544;SDS011;70990;50.618;7.346;2023-11-18T08:43:42;20.52;;;7.97;;
81544;SDS011;70990;50.618;7.346;2023-11-18T08:46:08;19.85;;;6.38;;
81544;SDS011;70990;50.618;7.346;2023-11-18T08:48:37;18.17;;;6.60;;
81544;SDS011;70990;50.618;7.346;2023-11-18T08:51:04;16.60;;;6.20;;
81544;SDS011;70990;50.618;7.346;2023-11-18T08:53:31;9.38;;;4.13;;
81544;SDS011;70990;50.618;7.346;2023-11-18T08:55:57;18.67;;;6.68;;
81544;SDS011;70990;50.618;7.346;2023-11-18T08:58:25;13.32;;;5.90;;
81544;SDS011;70990;50.618;7.346;2023-11-18T09:00:54;16.45;;;6.10;;
81544;SDS011;70990;50.618;7.346;2023-11-18T09:03:23;19.30;;;7.18;;
81544;SDS011;70990;50.618;7.346;2023-11-18T09:08:21;11.30;;;4.35;;
81544;SDS011;70990;50.618;7.346;2023-11-18T09:10:47;15.75;;;6.07;;
81544;SDS011;70990;50.618;7.346;2023-11-18T09:13:14;22.85;;;6.72;;
81544;SDS011;70990;50.618;7.346;2023-11-18T09:15:40;15.32;;;6.32;;
81544;SDS011;70990;50.618;7.346;2023-11-18T09:18:07;15.52;;;6.15;;
81544;SDS011;70990;50.618;7.346;2023-11-18T09:20:33;13.30;;;5.22;;
81544;SDS011;70990;50.618;7.346;2023-11-18T09:23:00;13.32;;;5.00;;
81544;SDS011;70990;50.618;7.346;2023-11-18T09:25:29;13.27;;;5.78;;
81544;SDS011;70990;50.618;7.346;2023-11-18T09:27:55;13.20;;;5.13;;
81544;SDS011;70990;50.618;7.346;2023-11-18T09:30:22;13.65;;;5.63;;
81544;SDS011;70990;50.618;7.346;2023-11-18T09:32:48;12.68;;;4.90;;
81544;SDS011;70990;50.618;7.346;2023-11-18T09:35:15;11.50;;;4.15;;
81544;SDS011;70990;50.618;7.346;2023-11-18T09:37:41;10.05;;;5.03;;
81544;SDS011;70990;50.618;7.346;2023-11-18T09:40:08;14.93;;;6.60;;
81544;SDS011;70990;50.618;7.346;2023-11-18T09:42:40;16.08;;;6.55;;
81544;SDS011;70990;50.618;7.346;2023-11-18T09:45:07;13.88;;;5.40;;
81544;SDS011;70990;50.618;7.346;2023-11-18T09:47:36;16.10;;;6.57;;
81544;SDS011;70990;50.618;7.346;2023-11-18T09:50:08;12.18;;;5.10;;
81544;SDS011;70990;50.618;7.346;2023-11-18T09:52:41;9.85;;;3.90;;
81544;SDS011;70990;50.618;7.346;2023-11-18T09:55:15;10.70;;;5.03;;
81544;SDS011;70990;50.618;7.346;2023-11-18T09:58:01;12.23;;;5.57;;
81544;SDS011;70990;50.618;7.346;2023-11-18T10:00:30;8.75;;;3.83;;
81544;SDS011;70990;50.618;7.346;2023-11-18T10:02:57;12.13;;;4.90;;
81544;SDS011;70990;50.618;7.346;2023-11-18T10:05:24;5.72;;;2.35;;
81544;SDS011;70990;50.618;7.346;2023-11-18T10:07:54;12.90;;;4.30;;
81544;SDS011;70990;50.618;7.346;2023-11-18T10:10:20;12.75;;;5.53;;
81544;SDS011;70990;50.618;7.346;2023-11-18T10:12:48;10.00;;;3.72;;
81544;SDS011;70990;50.618;7.346;2023-11-18T10:15:16;14.30;;;5.40;;
81544;SDS011;70990;50.618;7.346;2023-11-18T10:17:44;16.55;;;5.20;;
81544;SDS011;70990;50.618;7.346;2023-11-18T10:20:11;10.10;;;5.53;;
81544;SDS011;70990;50.618;7.346;2023-11-18T10:22:38;14.43;;;6.28;;
81544;SDS011;70990;50.618;7.346;2023-11-18T10:25:04;13.57;;;6.07;;
81544;SDS011;70990;50.618;7.346;2023-11-18T10:27:31;6.97;;;3.00;;
81544;SDS011;70990;50.618;7.346;2023-11-18T10:30:00;12.57;;;5.13;;
81544;SDS011;70990;50.618;7.346;2023-11-18T10:32:29;11.07;;;3.85;;
81544;SDS011;70990;50.618;7.346;2023-11-18T10:34:56;7.20;;;2.55;;
81544;SDS011;70990;50.618;7.346;2023-11-18T10:37:27;9.30;;;3.33;;
81544;SDS011;70990;50.618;7.346;2023-11-18T10:39:54;8.18;;;3.80;;
81544;SDS011;70990;50.618;7.346;2023-11-18T10:42:20;7.32;;;3.13;;
81544;SDS011;70990;50.618;7.346;2023-11-18T10:44:54;7.90;;;3.03;;
81544;SDS011;70990;50.618;7.346;2023-11-18T10:47:27;13.00;;;4.78;;
81544;SDS011;70990;50.618;7.346;2023-11-18T10:49:54;7.80;;;3.67;;
81544;SDS011;70990;50.618;7.346;2023-11-18T10:52:22;12.32;;;5.07;;
81544;SDS011;70990;50.618;7.346;2023-11-18T10:54:52;10.00;;;3.88;;
81544;SDS011;70990;50.618;7.346;2023-11-18T10:57:19;10.10;;;3.50;;
81544;SDS011;70990;50.618;7.346;2023-11-18T11:00:02;9.07;;;3.90;;
81544;SDS011;70990;50.618;7.346;2023-11-18T11:02:30;12.68;;;5.22;;
81544;SDS011;70990;50.618;7.346;2023-11-18T11:04:57;11.10;;;4.40;;
81544;SDS011;70990;50.618;7.346;2023-11-18T11:07:23;9.88;;;3.83;;
81544;SDS011;70990;50.618;7.346;2023-11-18T11:09:52;13.55;;;4.60;;
81544;SDS011;70990;50.618;7.346;2023-11-18T11:12:18;12.63;;;5.22;;
81544;SDS011;70990;50.618;7.346;2023-11-18T11:14:52;8.57;;;4.22;;
81544;SDS011;70990;50.618;7.346;2023-11-18T11:17:27;11.73;;;3.95;;
81544;SDS011;70990;50.618;7.346;2023-11-18T11:19:55;11.52;;;4.55;;
81544;SDS011;70990;50.618;7.346;2023-11-18T11:22:33;22.20;;;4.93;;
81544;SDS011;70990;50.618;7.346;2023-11-18T11:25:20;10.75;;;4.40;;
81544;SDS011;70990;50.618;7.346;2023-11-18T11:28:00;12.82;;;5.38;;
81544;SDS011;70990;50.618;7.346;2023-11-18T11:30:46;10.40;;;4.68;;
81544;SDS011;70990;50.618;7.346;2023-11-18T11:33:23;10.13;;;4.18;;
81544;SDS011;70990;50.618;7.346;2023-11-18T11:35:55;12.57;;;5.07;;
81544;SDS011;70990;50.618;7.346;2023-11-18T11:38:23;9.95;;;4.97;;
81544;SDS011;70990;50.618;7.346;2023-11-18T11:40:51;11.10;;;3.63;;
81544;SDS011;70990;50.618;7.346;2023-11-18T11:43:18;12.05;;;4.25;;
81544;SDS011;70990;50.618;7.346;2023-11-18T11:45:44;6.63;;;2.78;;
81544;SDS011;70990;50.618;7.346;2023-11-18T11:48:11;11.30;;;4.53;;
81544;SDS011;70990;50.618;7.346;2023-11-18T11:50:39;13.95;;;2.85;;
81544;SDS011;70990;50.618;7.346;2023-11-18T11:53:22;9.60;;;4.00;;
81544;SDS011;70990;50.618;7.346;2023-11-18T11:55:53;12.05;;;4.38;;
81544;SDS011;70990;50.618;7.346;2023-11-18T11:58:30;14.77;;;6.07;;
81544;SDS011;70990;50.618;7.346;2023-11-18T12:01:01;13.93;;;5.18;;
81544;SDS011;70990;50.618;7.346;2023-11-18T12:03:28;10.65;;;4.68;;
81544;SDS011;70990;50.618;7.346;2023-11-18T12:05:57;13.48;;;5.18;;
81544;SDS011;70990;50.618;7.346;2023-11-18T12:08:23;7.47;;;3.13;;
81544;SDS011;70990;50.618;7.346;2023-11-18T12:10:51;8.77;;;3.65;;
81544;SDS011;70990;50.618;7.346;2023-11-18T12:13:19;13.60;;;5.13;;
81544;SDS011;70990;50.618;7.346;2023-11-18T12:15:53;12.25;;;3.83;;
81544;SDS011;70990;50.618;7.346;2023-11-18T12:18:21;8.18;;;3.50;;
81544;SDS011;70990;50.618;7.346;2023-11-18T12:20:48;5.45;;;2.17;;
81544;SDS011;70990;50.618;7.346;2023-11-18T12:23:15;6.85;;;2.63;;
81544;SDS011;70990;50.618;7.346;2023-11-18T12:25:42;11.13;;;3.28;;
81544;SDS011;70990;50.618;7.346;2023-11-18T12:28:15;6.60;;;2.38;;
81544;SDS011;70990;50.618;7.346;2023-11-18T12:30:43;7.38;;;2.92;;
81544;SDS011;70990;50.618;7.346;2023-11-18T12:33:11;9.25;;;3.50;;
81544;SDS011;70990;50.618;7.346;2023-11-18T12:46:50;11.23;;;3.92;;
81544;SDS011;70990;50.618;7.346;2023-11-18T12:49:19;7.75;;;3.40;;
81544;SDS011;70990;50.618;7.346;2023-11-18T12:51:49;7.72;;;3.38;;
81544;SDS011;70990;50.618;7.346;2023-11-18T12:54:20;10.75;;;3.97;;
81544;SDS011;70990;50.618;7.346;2023-11-18T12:56:51;7.43;;;3.28;;
81544;SDS011;70990;50.618;7.346;2023-11-18T12:59:18;9.35;;;3.95;;
81544;SDS011;70990;50.618;7.346;2023-11-18T13:01:46;8.60;;;3.00;;
81544;SDS011;70990;50.618;7.346;2023-11-18T13:04:13;8.27;;;3.95;;
81544;SDS011;70990;50.618;7.346;2023-11-18T13:06:40;8.82;;;3.53;;
81544;SDS011;70990;50.618;7.346;2023-11-18T13:09:07;11.57;;;4.25;;
81544;SDS011;70990;50.618;7.346;2023-11-18T13:11:34;12.10;;;5.32;;
81544;SDS011;70990;50.618;7.346;2023-11-18T13:14:00;14.05;;;4.90;;
81544;SDS011;70990;50.618;7.346;2023-11-18T13:16:28;9.70;;;3.88;;
81544;SDS011;70990;50.618;7.346;2023-11-18T13:18:55;10.52;;;4.03;;
81544;SDS011;70990;50.618;7.346;2023-11-18T13:21:21;11.25;;;4.93;;
81544;SDS011;70990;50.618;7.346;2023-11-18T13:23:48;13.75;;;5.72;;
81544;SDS011;70990;50.618;7.346;2023-11-18T13:26:17;9.75;;;4.05;;
81544;SDS011;70990;50.618;7.346;2023-11-18T13:28:48;12.35;;;4.68;;
81544;SDS011;70990;50.618;7.346;2023-11-18T13:31:16;12.07;;;4.07;;
81544;SDS011;70990;50.618;7.346;2023-11-18T13:33:50;9.35;;;3.55;;
81544;SDS011;70990;50.618;7.346;2023-11-18T13:36:28;9.05;;;3.38;;
81544;SDS011;70990;50.618;7.346;2023-11-18T13:38:58;12.52;;;5.25;;
81544;SDS011;70990;50.618;7.346;2023-11-18T13:41:30;17.35;;;6.45;;
81544;SDS011;70990;50.618;7.346;2023-11-18T13:43:57;10.40;;;2.80;;
81544;SDS011;70990;50.618;7.346;2023-11-18T13:46:26;8.90;;;3.30;;
81544;SDS011;70990;50.618;7.346;2023-11-18T13:48:54;9.88;;;4.13;;
81544;SDS011;70990;50.618;7.346;2023-11-18T13:51:20;11.23;;;4.85;;
81544;SDS011;70990;50.618;7.346;2023-11-18T13:53:47;8.00;;;3.47;;
81544;SDS011;70990;50.618;7.346;2023-11-18T13:56:14;14.07;;;4.97;;
81544;SDS011;70990;50.618;7.346;2023-11-18T13:58:44;14.50;;;5.65;;
81544;SDS011;70990;50.618;7.346;2023-11-18T14:01:11;11.38;;;4.53;;
81544;SDS011;70990;50.618;7.346;2023-11-18T14:03:38;17.27;;;5.43;;
81544;SDS011;70990;50.618;7.346;2023-11-18T14:06:06;11.95;;;4.68;;
81544;SDS011;70990;50.618;7.346;2023-11-18T14:08:34;10.82;;;3.97;;
81544;SDS011;70990;50.618;7.346;2023-11-18T14:11:00;12.98;;;4.47;;
81544;SDS011;70990;50.618;7.346;2023-11-18T14:13:30;13.52;;;4.10;;
81544;SDS011;70990;50.618;7.346;2023-11-18T14:15:59;13.00;;;4.32;;
81544;SDS011;70990;50.618;7.346;2023-11-18T14:18:26;18.17;;;5.30;;
81544;SDS011;70990;50.618;7.346;2023-11-18T14:20:53;11.80;;;3.83;;
81544;SDS011;70990;50.618;7.346;2023-11-18T14:23:20;9.32;;;3.50;;
81544;SDS011;70990;50.618;7.346;2023-11-18T14:25:47;11.13;;;2.72;;
81544;SDS011;70990;50.618;7.346;2023-11-18T14:28:14;6.50;;;2.65;;
81544;SDS011;70990;50.618;7.346;2023-11-18T14:30:41;7.78;;;2.78;;
81544;SDS011;70990;50.618;7.346;2023-11-18T14:33:07;6.22;;;2.22;;
81544;SDS011;70990;50.618;7.346;2023-11-18T14:35:34;9.35;;;3.40;;
81544;SDS011;70990;50.618;7.346;2023-11-18T14:38:01;9.63;;;3.45;;
81544;SDS011;70990;50.618;7.346;2023-11-18T14:40:28;9.80;;;3.47;;
81544;SDS011;70990;50.618;7.346;2023-11-18T14:42:55;6.20;;;2.20;;
81544;SDS011;70990;50.618;7.346;2023-11-18T14:45:22;8.45;;;2.72;;
81544;SDS011;70990;50.618;7.346;2023-11-18T14:47:48;6.57;;;2.45;;
81544;SDS011;70990;50.618;7.346;2023-11-18T14:50:19;8.15;;;2.85;;